Time;durP1;ratioP1;P1;durP2;ratioP2;P2;SDS_P1;SDS_P2;PMS_P1;PMS_P2;Temp;Humidity;BMP_temperature;BMP_pressure;BME280_temperature;BME280_humidity;BME280_pressure;Samples;Min_cycle;Max_cycle;Signal;HPM_P1;HPM_P2
2023/09/11 00:02:06;;;;;;;0.20;0.20;;;;;;;;;;4963452;28;20031;-64
2023/09/11 00:04:32;;;;;;;0.10;0.10;;;;;;;;;;4966335;28;20840;-60
2023/09/11 00:06:57;;;;;;;0.20;0.20;;;;;;;;;;4964437;28;20034;-65
2023/09/11 00:09:22;;;;;;;0.20;0.20;;;;;;;;;;4963528;28;20031;-60
2023/09/11 00:11:48;;;;;;;0.20;0.20;;;;;;;;;;4965875;28;20035;-62
2023/09/11 00:14:13;;;;;;;0.20;0.20;;;;;;;;;;4993929;28;20031;-61
2023/09/11 00:16:39;;;;;;;0.20;0.20;;;;;;;;;;4990788;28;20058;-63
2023/09/11 00:19:04;;;;;;;0.20;0.20;;;;;;;;;;4961624;28;20729;-61
2023/09/11 00:21:29;;;;;;;0.20;0.20;;;;;;;;;;4959748;28;20037;-61
2023/09/11 00:23:55;;;;;;;0.20;0.20;;;;;;;;;;4966692;28;20030;-63
2023/09/11 00:26:20;;;;;;;0.20;0.20;;;;;;;;;;4966623;28;20069;-66
2023/09/11 00:28:50;;;;;;;0.20;0.20;;;;;;;;;;4962874;28;20042;-62
2023/09/11 00:31:16;;;;;;;0.20;0.20;;;;;;;;;;4990601;28;20035;-63
2023/09/11 00:33:41;;;;;;;0.20;0.20;;;;;;;;;;4964892;28;20027;-62
2023/09/11 00:36:06;;;;;;;0.20;0.20;;;;;;;;;;4963242;28;20033;-61
2023/09/11 00:38:32;;;;;;;0.10;0.10;;;;;;;;;;4962675;28;20031;-62
2023/09/11 00:40:57;;;;;;;0.20;0.20;;;;;;;;;;4966003;28;20080;-60
2023/09/11 00:43:22;;;;;;;0.20;0.20;;;;;;;;;;4962608;28;20039;-62
2023/09/11 00:45:50;;;;;;;0.20;0.20;;;;;;;;;;4964799;28;20074;-63
2023/09/11 00:48:17;;;;;;;0.20;0.20;;;;;;;;;;4960597;28;20389;-67
2023/09/11 00:50:44;;;;;;;0.20;0.20;;;;;;;;;;4981636;28;20037;-60
2023/09/11 00:53:10;;;;;;;0.20;0.20;;;;;;;;;;4985491;28;20092;-61
2023/09/11 00:55:36;;;;;;;0.20;0.20;;;;;;;;;;4967201;28;20038;-64
2023/09/11 00:58:02;;;;;;;0.20;0.20;;;;;;;;;;4966699;28;20038;-60
2023/09/11 01:00:28;;;;;;;0.20;0.20;;;;;;;;;;4974070;28;20134;-63
2023/09/11 01:02:53;;;;;;;0.20;0.20;;;;;;;;;;4952758;23;20162;-59
2023/09/11 01:05:20;;;;;;;0.20;0.20;;;;;;;;;;4925435;28;20024;-64
2023/09/11 01:07:45;;;;;;;0.20;0.20;;;;;;;;;;4923488;29;20111;-60
2023/09/11 01:10:10;;;;;;;0.20;0.20;;;;;;;;;;4923917;29;20893;-60
2023/09/11 01:12:37;;;;;;;0.20;0.20;;;;;;;;;;4919098;29;20878;-61
2023/09/11 01:15:04;;;;;;;0.30;0.30;;;;;;;;;;4920748;29;20457;-61
2023/09/11 01:17:33;;;;;;;0.30;0.30;;;;;;;;;;4950515;28;20040;-59
2023/09/11 01:20:01;;;;;;;0.10;0.10;;;;;;;;;;4950411;28;20039;-62
2023/09/11 01:22:38;;;;;;;0.20;0.20;;;;;;;;;;4926817;29;20498;-62
2023/09/11 01:25:23;;;;;;;0.20;0.20;;;;;;;;;;4937332;28;20042;-60
2023/09/11 01:27:54;;;;;;;0.20;0.20;;;;;;;;;;4921034;29;20138;-58
2023/09/11 01:30:21;;;;;;;0.20;0.20;;;;;;;;;;4921614;29;20063;-60
2023/09/11 01:32:47;;;;;;;0.20;0.20;;;;;;;;;;4956853;28;20031;-61
2023/09/11 01:35:13;;;;;;;0.27;0.27;;;;;;;;;;4921121;29;20028;-60
2023/09/11 01:37:38;;;;;;;0.22;0.22;;;;;;;;;;4921620;29;20163;-59
2023/09/11 01:40:04;;;;;;;0.20;0.20;;;;;;;;;;4919750;29;20471;-59
2023/09/11 01:42:38;;;;;;;0.30;0.30;;;;;;;;;;4919787;29;20492;-60
2023/09/11 01:45:04;;;;;;;0.17;0.17;;;;;;;;;;4933908;29;20760;-58
2023/09/11 01:47:31;;;;;;;0.20;0.20;;;;;;;;;;4919268;29;20035;-61
2023/09/11 01:49:56;;;;;;;0.20;0.20;;;;;;;;;;4921381;29;20043;-62
2023/09/11 01:52:22;;;;;;;0.20;0.20;;;;;;;;;;4922431;29;20059;-60
2023/09/11 01:54:47;;;;;;;0.20;0.20;;;;;;;;;;4916919;29;20110;-62
2023/09/11 01:57:13;;;;;;;0.20;0.20;;;;;;;;;;4915616;29;20047;-64
2023/09/11 01:59:38;;;;;;;0.20;0.20;;;;;;;;;;4922193;29;20028;-59
2023/09/11 02:02:03;;;;;;;0.30;0.30;;;;;;;;;;4924344;29;20043;-59
2023/09/11 02:04:29;;;;;;;0.22;0.22;;;;;;;;;;4918780;29;20062;-59
2023/09/11 02:06:54;;;;;;;0.20;0.20;;;;;;;;;;4923136;29;20063;-61
2023/09/11 02:09:20;;;;;;;0.20;0.20;;;;;;;;;;4923896;29;20130;-62
2023/09/11 02:11:45;;;;;;;0.20;0.20;;;;;;;;;;4916219;29;20024;-59
2023/09/11 02:14:10;;;;;;;0.20;0.20;;;;;;;;;;4904025;29;20036;-62
2023/09/11 02:16:36;;;;;;;0.20;0.20;;;;;;;;;;4920527;28;20427;-61
2023/09/11 02:19:01;;;;;;;0.20;0.20;;;;;;;;;;4923650;29;20115;-63
2023/09/11 02:21:27;;;;;;;0.20;0.20;;;;;;;;;;4918736;29;20036;-60
2023/09/11 02:23:52;;;;;;;0.20;0.20;;;;;;;;;;4921769;29;20052;-60
2023/09/11 02:26:17;;;;;;;0.20;0.20;;;;;;;;;;4915187;29;20062;-63
2023/09/11 02:28:43;;;;;;;0.20;0.20;;;;;;;;;;4917118;29;20032;-61
2023/09/11 02:31:08;;;;;;;0.20;0.20;;;;;;;;;;4917697;29;20038;-59
2023/09/11 02:33:34;;;;;;;0.20;0.20;;;;;;;;;;4920698;29;20146;-62
2023/09/11 02:36:02;;;;;;;0.20;0.20;;;;;;;;;;4921523;29;20032;-59
2023/09/11 02:38:28;;;;;;;0.25;0.25;;;;;;;;;;4929963;28;20094;-63
2023/09/11 02:40:53;;;;;;;0.20;0.20;;;;;;;;;;4923071;28;20036;-60
2023/09/11 02:43:19;;;;;;;0.20;0.20;;;;;;;;;;4917446;29;20040;-60
2023/09/11 02:45:44;;;;;;;0.30;0.30;;;;;;;;;;4901481;29;20039;-62
2023/09/11 02:48:10;;;;;;;0.30;0.30;;;;;;;;;;4918587;29;20036;-64
2023/09/11 02:50:36;;;;;;;0.30;0.30;;;;;;;;;;4917457;29;20020;-59
2023/09/11 02:53:01;;;;;;;0.20;0.20;;;;;;;;;;4931678;28;20043;-61
2023/09/11 02:55:27;;;;;;;0.30;0.30;;;;;;;;;;4916688;29;20032;-64
2023/09/11 02:57:52;;;;;;;0.20;0.20;;;;;;;;;;4907079;29;20296;-63
2023/09/11 03:00:17;;;;;;;0.20;0.20;;;;;;;;;;4918750;29;20036;-61
2023/09/11 03:02:43;;;;;;;0.20;0.20;;;;;;;;;;4924603;29;20043;-66
2023/09/11 03:05:08;;;;;;;0.20;0.20;;;;;;;;;;4931359;28;20131;-60
2023/09/11 03:07:33;;;;;;;0.20;0.20;;;;;;;;;;4917306;29;20557;-62
2023/09/11 03:09:59;;;;;;;0.22;0.22;;;;;;;;;;4918718;29;20119;-61
2023/09/11 03:12:24;;;;;;;0.20;0.20;;;;;;;;;;4918517;29;20138;-60
2023/09/11 03:14:50;;;;;;;0.30;0.30;;;;;;;;;;4916565;29;20028;-61
2023/09/11 03:17:16;;;;;;;0.30;0.30;;;;;;;;;;4922279;29;20051;-59
2023/09/11 03:19:41;;;;;;;0.20;0.20;;;;;;;;;;4923960;29;20048;-61
2023/09/11 03:22:07;;;;;;;0.20;0.20;;;;;;;;;;4918357;29;20054;-64
2023/09/11 03:24:32;;;;;;;0.20;0.20;;;;;;;;;;4914013;29;20047;-61
2023/09/11 03:26:57;;;;;;;0.20;0.20;;;;;;;;;;4920598;29;20482;-61
2023/09/11 03:29:23;;;;;;;0.25;0.25;;;;;;;;;;4918471;29;20131;-59
2023/09/11 03:31:48;;;;;;;0.20;0.20;;;;;;;;;;4917021;29;20042;-58
2023/09/11 03:34:13;;;;;;;0.20;0.20;;;;;;;;;;4915200;29;20111;-60
2023/09/11 03:36:41;;;;;;;;;;;;;;;;;;4919758;29;20032;-58
2023/09/11 03:39:07;;;;;;;0.30;0.30;;;;;;;;;;4918140;29;19983;-60
2023/09/11 03:41:33;;;;;;;0.30;0.30;;;;;;;;;;4918129;29;20426;-63
2023/09/11 03:43:59;;;;;;;0.30;0.30;;;;;;;;;;4914881;29;20024;-58
2023/09/11 03:46:24;;;;;;;0.25;0.25;;;;;;;;;;4914915;29;20402;-60
2023/09/11 03:48:49;;;;;;;0.20;0.20;;;;;;;;;;4908795;29;20035;-61
2023/09/11 03:51:17;;;;;;;0.20;0.20;;;;;;;;;;4920595;29;20047;-59
2023/09/11 03:53:42;;;;;;;0.20;0.20;;;;;;;;;;4923074;29;20405;-61
2023/09/11 03:56:10;;;;;;;0.30;0.30;;;;;;;;;;4930648;28;20158;-60
2023/09/11 03:58:35;;;;;;;0.27;0.27;;;;;;;;;;4917854;29;20772;-58
2023/09/11 04:01:01;;;;;;;0.20;0.20;;;;;;;;;;4915800;29;20130;-60
2023/09/11 04:03:26;;;;;;;0.20;0.20;;;;;;;;;;4922675;29;20051;-63
2023/09/11 04:05:51;;;;;;;0.20;0.20;;;;;;;;;;4919855;29;20043;-59
2023/09/11 04:08:17;;;;;;;0.30;0.30;;;;;;;;;;4901790;29;20539;-60
2023/09/11 04:10:43;;;;;;;0.22;0.22;;;;;;;;;;4906878;29;20042;-63
2023/09/11 04:13:08;;;;;;;0.30;0.30;;;;;;;;;;4917557;29;20035;-62
2023/09/11 04:15:33;;;;;;;0.30;0.30;;;;;;;;;;4921958;29;20452;-61
2023/09/11 04:17:58;;;;;;;0.30;0.30;;;;;;;;;;4919640;29;20134;-60
2023/09/11 04:20:24;;;;;;;0.30;0.30;;;;;;;;;;4917389;29;20043;-62
2023/09/11 04:22:51;;;;;;;0.20;0.20;;;;;;;;;;4920291;29;20051;-61
2023/09/11 04:25:16;;;;;;;0.30;0.30;;;;;;;;;;4919560;29;20441;-63
2023/09/11 04:27:41;;;;;;;0.30;0.30;;;;;;;;;;4925735;29;20530;-59
2023/09/11 04:30:07;;;;;;;0.30;0.30;;;;;;;;;;4923265;29;20114;-62
2023/09/11 04:32:32;;;;;;;0.25;0.25;;;;;;;;;;4918131;29;20028;-62
2023/09/11 04:34:58;;;;;;;0.20;0.20;;;;;;;;;;4920037;29;20402;-59
2023/09/11 04:37:23;;;;;;;0.30;0.30;;;;;;;;;;4919405;29;20031;-64
2023/09/11 04:39:48;;;;;;;0.20;0.20;;;;;;;;;;4923328;29;20538;-62
2023/09/11 04:42:15;;;;;;;0.20;0.20;;;;;;;;;;4917946;29;20036;-58
2023/09/11 04:44:40;;;;;;;0.30;0.30;;;;;;;;;;4920258;29;20047;-63
2023/09/11 04:47:06;;;;;;;0.30;0.30;;;;;;;;;;4919454;29;20028;-64
2023/09/11 04:49:32;;;;;;;0.27;0.27;;;;;;;;;;4923888;29;20042;-62
2023/09/11 04:51:58;;;;;;;0.30;0.30;;;;;;;;;;4921572;29;20294;-61
2023/09/11 04:54:23;;;;;;;0.30;0.30;;;;;;;;;;4920565;28;20470;-62
2023/09/11 04:56:48;;;;;;;0.20;0.20;;;;;;;;;;4923388;29;20083;-62
2023/09/11 04:59:14;;;;;;;0.30;0.30;;;;;;;;;;4920660;29;20131;-61
2023/09/11 05:01:39;;;;;;;0.30;0.30;;;;;;;;;;4923274;29;20480;-60
2023/09/11 05:04:06;;;;;;;0.20;0.20;;;;;;;;;;4921019;29;20031;-66
2023/09/11 05:06:31;;;;;;;0.30;0.30;;;;;;;;;;4923019;29;20438;-62
2023/09/11 05:08:56;;;;;;;0.30;0.30;;;;;;;;;;4919791;29;20039;-65
2023/09/11 05:11:23;;;;;;;0.30;0.30;;;;;;;;;;4920992;29;20544;-58
2023/09/11 05:13:48;;;;;;;0.30;0.30;;;;;;;;;;4909747;29;20031;-60
2023/09/11 05:16:14;;;;;;;0.30;0.30;;;;;;;;;;4918299;29;20036;-63
2023/09/11 05:18:39;;;;;;;0.30;0.30;;;;;;;;;;4919175;29;20418;-59
2023/09/11 05:21:04;;;;;;;0.30;0.30;;;;;;;;;;4929166;28;20035;-59
2023/09/11 05:23:30;;;;;;;0.30;0.30;;;;;;;;;;4919762;29;20090;-59
2023/09/11 05:25:55;;;;;;;0.30;0.30;;;;;;;;;;4919830;29;20024;-58
2023/09/11 05:28:20;;;;;;;0.30;0.30;;;;;;;;;;4919904;29;20095;-60
2023/09/11 05:30:46;;;;;;;0.30;0.30;;;;;;;;;;4921883;29;20059;-64
2023/09/11 05:33:11;;;;;;;0.30;0.30;;;;;;;;;;4916787;29;20028;-61
2023/09/11 05:35:38;;;;;;;0.30;0.30;;;;;;;;;;4918442;29;20055;-61
2023/09/11 05:38:03;;;;;;;0.30;0.30;;;;;;;;;;4919297;29;20032;-62
2023/09/11 05:40:29;;;;;;;0.30;0.30;;;;;;;;;;4921600;29;20062;-61
2023/09/11 05:42:54;;;;;;;0.30;0.30;;;;;;;;;;4919346;29;20036;-60
2023/09/11 05:45:19;;;;;;;0.20;0.20;;;;;;;;;;4916662;29;20036;-59
2023/09/11 05:47:44;;;;;;;0.20;0.20;;;;;;;;;;4922177;29;20114;-59
2023/09/11 05:50:11;;;;;;;0.30;0.30;;;;;;;;;;4921458;29;20107;-58
2023/09/11 05:52:36;;;;;;;0.25;0.25;;;;;;;;;;4918873;29;20066;-58
2023/09/11 05:55:01;;;;;;;0.20;0.20;;;;;;;;;;4928348;29;20711;-57
2023/09/11 05:57:27;;;;;;;0.30;0.30;;;;;;;;;;4922346;29;20084;-58
2023/09/11 05:59:52;;;;;;;0.30;0.30;;;;;;;;;;4920590;29;20478;-60
2023/09/11 06:02:17;;;;;;;0.22;0.22;;;;;;;;;;4919350;29;20467;-63
2023/09/11 06:04:43;;;;;;;0.20;0.20;;;;;;;;;;4925921;29;20035;-58
2023/09/11 06:07:09;;;;;;;0.20;0.20;;;;;;;;;;4923107;29;20043;-58
2023/09/11 06:09:34;;;;;;;0.20;0.20;;;;;;;;;;4920683;29;20453;-60
2023/09/11 06:11:59;;;;;;;0.20;0.20;;;;;;;;;;4920437;29;20036;-60
2023/09/11 06:14:25;;;;;;;0.20;0.20;;;;;;;;;;4919894;29;20063;-62
2023/09/11 06:16:50;;;;;;;0.20;0.20;;;;;;;;;;4918569;29;20028;-60
2023/09/11 06:19:15;;;;;;;0.20;0.20;;;;;;;;;;4919396;29;20444;-60
2023/09/11 06:21:44;;;;;;;0.20;0.20;;;;;;;;;;4922384;29;20040;-61
2023/09/11 06:24:09;;;;;;;0.20;0.20;;;;;;;;;;4919215;29;20091;-61
2023/09/11 06:26:34;;;;;;;0.20;0.20;;;;;;;;;;4919593;29;20036;-60
2023/09/11 06:29:00;;;;;;;0.20;0.20;;;;;;;;;;4917644;29;20028;-62
2023/09/11 06:31:25;;;;;;;0.20;0.20;;;;;;;;;;4916743;29;20481;-62
2023/09/11 06:33:51;;;;;;;0.20;0.20;;;;;;;;;;4921100;29;20027;-58
2023/09/11 06:36:16;;;;;;;0.20;0.20;;;;;;;;;;4917133;29;20024;-62
2023/09/11 06:38:41;;;;;;;0.20;0.20;;;;;;;;;;4916282;29;20063;-62
2023/09/11 06:41:06;;;;;;;0.20;0.20;;;;;;;;;;4916686;29;20036;-60
2023/09/11 06:43:32;;;;;;;0.20;0.20;;;;;;;;;;4917821;29;20397;-62
2023/09/11 06:45:57;;;;;;;0.20;0.20;;;;;;;;;;4916228;29;20123;-58
2023/09/11 06:48:22;;;;;;;0.20;0.20;;;;;;;;;;4915956;29;20113;-61
2023/09/11 06:50:48;;;;;;;0.20;0.20;;;;;;;;;;4918891;29;20407;-61
2023/09/11 06:53:13;;;;;;;0.20;0.20;;;;;;;;;;4919401;29;20205;-58
2023/09/11 06:55:45;;;;;;;0.20;0.20;;;;;;;;;;4922118;29;20032;-63
2023/09/11 06:58:10;;;;;;;0.20;0.20;;;;;;;;;;4916169;29;20040;-61
2023/09/11 07:00:36;;;;;;;0.20;0.20;;;;;;;;;;4918308;29;20458;-62
2023/09/11 07:03:01;;;;;;;0.10;0.10;;;;;;;;;;4921931;29;20070;-61
2023/09/11 07:05:27;;;;;;;0.20;0.20;;;;;;;;;;4916532;29;20456;-61
2023/09/11 07:07:53;;;;;;;0.20;0.20;;;;;;;;;;4918986;29;20785;-61
2023/09/11 07:10:18;;;;;;;0.20;0.20;;;;;;;;;;4919284;29;20035;-60
2023/09/11 07:12:44;;;;;;;0.10;0.10;;;;;;;;;;4919459;29;20382;-58
2023/09/11 07:15:09;;;;;;;0.10;0.10;;;;;;;;;;4917702;29;20027;-59
2023/09/11 07:17:35;;;;;;;0.10;0.10;;;;;;;;;;4918834;29;20043;-62
2023/09/11 07:20:03;;;;;;;0.10;0.10;;;;;;;;;;4916695;29;20031;-58
2023/09/11 07:22:28;;;;;;;0.10;0.10;;;;;;;;;;4927106;29;20031;-61
2023/09/11 07:24:53;;;;;;;0.10;0.10;;;;;;;;;;4926057;29;20082;-59
2023/09/11 07:27:19;;;;;;;0.15;0.15;;;;;;;;;;4919246;29;20470;-61
2023/09/11 07:29:44;;;;;;;0.10;0.10;;;;;;;;;;4923577;29;20032;-61
2023/09/11 07:32:09;;;;;;;0.10;0.10;;;;;;;;;;4917447;29;20062;-61
2023/09/11 07:34:35;;;;;;;0.10;0.10;;;;;;;;;;4916962;29;20569;-62
2023/09/11 07:37:00;;;;;;;0.10;0.10;;;;;;;;;;4916943;29;20087;-59
2023/09/11 07:39:25;;;;;;;0.10;0.10;;;;;;;;;;4918807;29;20638;-60
2023/09/11 07:41:51;;;;;;;0.10;0.10;;;;;;;;;;4917121;29;20120;-62
2023/09/11 07:44:16;;;;;;;0.10;0.10;;;;;;;;;;4917057;29;20723;-59
2023/09/11 07:46:41;;;;;;;0.15;0.15;;;;;;;;;;4922742;29;20091;-60
2023/09/11 07:49:06;;;;;;;0.10;0.10;;;;;;;;;;4918117;29;20036;-58
2023/09/11 07:51:32;;;;;;;0.10;0.10;;;;;;;;;;4920837;29;20028;-59
2023/09/11 07:53:58;;;;;;;0.10;0.10;;;;;;;;;;4916344;29;20126;-60
2023/09/11 07:56:24;;;;;;;0.10;0.10;;;;;;;;;;4916256;29;20036;-60
2023/09/11 07:58:50;;;;;;;0.10;0.10;;;;;;;;;;4917855;29;20143;-63
2023/09/11 08:01:15;;;;;;;0.10;0.10;;;;;;;;;;4916462;29;20037;-65
2023/09/11 08:03:41;;;;;;;0.10;0.10;;;;;;;;;;4923538;29;20447;-60
2023/09/11 08:06:06;;;;;;;0.10;0.10;;;;;;;;;;4917710;29;20063;-60
2023/09/11 08:08:32;;;;;;;0.10;0.10;;;;;;;;;;4933183;28;20023;-60
2023/09/11 08:10:57;;;;;;;0.10;0.10;;;;;;;;;;4924817;29;20055;-60
2023/09/11 08:13:22;;;;;;;0.10;0.10;;;;;;;;;;4922423;29;20036;-59
2023/09/11 08:15:47;;;;;;;0.10;0.10;;;;;;;;;;4924675;29;20547;-62
2023/09/11 08:18:13;;;;;;;0.10;0.10;;;;;;;;;;4924836;29;20486;-59
2023/09/11 08:20:44;;;;;;;0.00;0.00;;;;;;;;;;4919480;29;20430;-59
2023/09/11 08:23:09;;;;;;;0.00;0.00;;;;;;;;;;4918900;29;20575;-63
2023/09/11 08:25:35;;;;;;;0.07;0.07;;;;;;;;;;4916515;29;20032;-62
2023/09/11 08:28:00;;;;;;;0.00;0.00;;;;;;;;;;4915913;29;20031;-58
2023/09/11 08:30:25;;;;;;;0.10;0.10;;;;;;;;;;4920102;29;20088;-60
2023/09/11 08:32:51;;;;;;;0.00;0.00;;;;;;;;;;4918945;29;20062;-61
2023/09/11 08:35:16;;;;;;;0.00;0.00;;;;;;;;;;4916658;29;20032;-62
2023/09/11 08:37:42;;;;;;;0.00;0.00;;;;;;;;;;4916510;29;20095;-58
2023/09/11 08:40:07;;;;;;;0.00;0.00;;;;;;;;;;4917538;29;20027;-59
2023/09/11 08:42:32;;;;;;;0.00;0.00;;;;;;;;;;4913161;29;20171;-59
2023/09/11 08:44:58;;;;;;;0.00;0.00;;;;;;;;;;4919050;29;20028;-64
2023/09/11 08:47:28;;;;;;;0.00;0.00;;;;;;;;;;4915764;29;20035;-62
2023/09/11 08:49:55;;;;;;;0.00;0.00;;;;;;;;;;4914481;29;20024;-59
2023/09/11 08:52:20;;;;;;;0.00;0.00;;;;;;;;;;4917451;29;20724;-59
2023/09/11 08:54:51;;;;;;;0.07;0.07;;;;;;;;;;4921727;29;20028;-60
2023/09/11 08:57:21;;;;;;;0.00;0.00;;;;;;;;;;4916642;29;20546;-63
2023/09/11 08:59:49;;;;;;;0.00;0.00;;;;;;;;;;4917528;29;20035;-58
2023/09/11 09:02:14;;;;;;;0.00;0.00;;;;;;;;;;4914748;29;20040;-63
2023/09/11 09:04:40;;;;;;;0.00;0.00;;;;;;;;;;4918636;29;20095;-60
2023/09/11 09:07:08;;;;;;;0.00;0.00;;;;;;;;;;4917538;29;20028;-59
2023/09/11 09:09:34;;;;;;;0.00;0.00;;;;;;;;;;4920926;29;20518;-60
2023/09/11 09:11:59;;;;;;;0.00;0.00;;;;;;;;;;4920188;29;20036;-61
2023/09/11 09:14:27;;;;;;;0.00;0.00;;;;;;;;;;4918815;29;20038;-59
2023/09/11 09:16:52;;;;;;;0.00;0.00;;;;;;;;;;4916077;29;20043;-59
2023/09/11 09:19:18;;;;;;;0.00;0.00;;;;;;;;;;4920809;29;20032;-60
2023/09/11 09:22:02;;;;;;;0.00;0.00;;;;;;;;;;4923924;29;20071;-61
2023/09/11 09:24:27;;;;;;;0.00;0.00;;;;;;;;;;4916879;29;20043;-61
2023/09/11 09:26:57;;;;;;;0.00;0.00;;;;;;;;;;4918174;29;20028;-60
2023/09/11 09:29:22;;;;;;;0.00;0.00;;;;;;;;;;4922236;29;20394;-60
2023/09/11 09:31:48;;;;;;;0.00;0.00;;;;;;;;;;4923232;29;20059;-60
2023/09/11 09:34:13;;;;;;;0.00;0.00;;;;;;;;;;4922074;29;20039;-59
2023/09/11 09:36:48;;;;;;;0.00;0.00;;;;;;;;;;4915530;29;20107;-62
2023/09/11 09:39:13;;;;;;;0.00;0.00;;;;;;;;;;4919662;29;20058;-62
2023/09/11 09:41:39;;;;;;;0.00;0.00;;;;;;;;;;4919376;29;20055;-59
2023/09/11 09:44:04;;;;;;;0.00;0.00;;;;;;;;;;4920201;29;20082;-61
2023/09/11 09:46:30;;;;;;;0.00;0.00;;;;;;;;;;4926710;29;20068;-61
2023/09/11 09:48:55;;;;;;;0.00;0.00;;;;;;;;;;4921249;29;20112;-59
2023/09/11 09:51:21;;;;;;;0.00;0.00;;;;;;;;;;4920094;29;20036;-60
2023/09/11 09:53:46;;;;;;;0.00;0.00;;;;;;;;;;4916891;29;20119;-59
2023/09/11 09:56:13;;;;;;;0.00;0.00;;;;;;;;;;4918013;29;20040;-63
2023/09/11 09:58:38;;;;;;;;;;;;;;;;;;4917192;29;20031;-62
2023/09/11 10:01:07;;;;;;;0.00;0.00;;;;;;;;;;4920239;29;19914;-60
2023/09/11 10:03:37;;;;;;;0.00;0.00;;;;;;;;;;4918341;29;20039;-60
2023/09/11 10:06:05;;;;;;;0.00;0.00;;;;;;;;;;4918549;29;20042;-60
2023/09/11 10:08:31;;;;;;;0.00;0.00;;;;;;;;;;4917575;29;20058;-60
2023/09/11 10:10:56;;;;;;;0.00;0.00;;;;;;;;;;4921017;29;20044;-61
2023/09/11 10:13:24;;;;;;;0.00;0.00;;;;;;;;;;4917727;29;20051;-61
2023/09/11 10:15:50;;;;;;;0.00;0.00;;;;;;;;;;4918223;29;20060;-60
2023/09/11 10:18:16;;;;;;;0.00;0.00;;;;;;;;;;4921272;29;20059;-59
2023/09/11 10:20:41;;;;;;;0.00;0.00;;;;;;;;;;4918671;29;20745;-62
2023/09/11 10:23:07;;;;;;;0.00;0.00;;;;;;;;;;4920353;29;20123;-60
2023/09/11 10:25:33;;;;;;;0.00;0.00;;;;;;;;;;4924807;29;20040;-61
2023/09/11 10:28:22;;;;;;;0.00;0.00;;;;;;;;;;4917968;29;20020;-61
2023/09/11 10:30:47;;;;;;;0.00;0.00;;;;;;;;;;4916142;29;20079;-62
2023/09/11 10:33:17;;;;;;;0.00;0.00;;;;;;;;;;4917646;29;20052;-62
2023/09/11 10:35:44;;;;;;;0.00;0.00;;;;;;;;;;4921536;29;20069;-61
2023/09/11 10:38:10;;;;;;;0.00;0.00;;;;;;;;;;4914802;29;20062;-61
2023/09/11 10:40:37;;;;;;;0.00;0.00;;;;;;;;;;4920559;29;20110;-60
2023/09/11 10:43:02;;;;;;;0.00;0.00;;;;;;;;;;4917208;29;20050;-59
2023/09/11 10:45:29;;;;;;;0.00;0.00;;;;;;;;;;4920873;29;20040;-59
2023/09/11 10:47:54;;;;;;;0.00;0.00;;;;;;;;;;4919811;29;20115;-63
2023/09/11 10:50:22;;;;;;;0.00;0.00;;;;;;;;;;4918632;29;20194;-58
2023/09/11 10:52:51;;;;;;;0.00;0.00;;;;;;;;;;4918027;29;20063;-59
2023/09/11 10:55:17;;;;;;;0.00;0.00;;;;;;;;;;4919001;29;20811;-57
2023/09/11 10:57:43;;;;;;;0.00;0.00;;;;;;;;;;4923287;29;20052;-61
2023/09/11 11:00:12;;;;;;;0.00;0.00;;;;;;;;;;4922400;29;20071;-59
2023/09/11 11:02:37;;;;;;;0.00;0.00;;;;;;;;;;4919168;29;20043;-59
2023/09/11 11:05:03;;;;;;;0.00;0.00;;;;;;;;;;4918071;29;20074;-60
2023/09/11 11:07:28;;;;;;;0.00;0.00;;;;;;;;;;4919992;29;20036;-59
2023/09/11 11:09:54;;;;;;;0.00;0.00;;;;;;;;;;4926058;29;20110;-63
2023/09/11 11:12:32;;;;;;;0.00;0.00;;;;;;;;;;4922106;29;20039;-59
2023/09/11 11:15:16;;;;;;;0.00;0.00;;;;;;;;;;4919200;29;20032;-63
2023/09/11 11:17:41;;;;;;;0.00;0.00;;;;;;;;;;4917833;29;20126;-59
2023/09/11 11:20:07;;;;;;;0.00;0.00;;;;;;;;;;4918380;29;20024;-61
2023/09/11 11:22:33;;;;;;;0.00;0.00;;;;;;;;;;4918709;29;20042;-60
2023/09/11 11:25:00;;;;;;;0.00;0.00;;;;;;;;;;4922354;29;20036;-59
2023/09/11 11:27:25;;;;;;;0.00;0.00;;;;;;;;;;4916846;29;20086;-60
2023/09/11 11:29:52;;;;;;;0.00;0.00;;;;;;;;;;4919383;29;20693;-61
2023/09/11 11:32:20;;;;;;;0.00;0.00;;;;;;;;;;4916719;29;20043;-61
2023/09/11 11:34:46;;;;;;;0.00;0.00;;;;;;;;;;4919831;29;20036;-60
2023/09/11 11:37:12;;;;;;;0.00;0.00;;;;;;;;;;4918555;29;20200;-61
2023/09/11 11:39:37;;;;;;;0.00;0.00;;;;;;;;;;4919651;29;20686;-61
2023/09/11 11:42:03;;;;;;;0.00;0.00;;;;;;;;;;4919190;29;20431;-62
2023/09/11 11:44:33;;;;;;;0.00;0.00;;;;;;;;;;4919625;29;20095;-63
2023/09/11 11:46:58;;;;;;;0.00;0.00;;;;;;;;;;4914316;29;20039;-59
2023/09/11 11:49:23;;;;;;;0.00;0.00;;;;;;;;;;4917016;29;20032;-60
2023/09/11 11:51:50;;;;;;;0.00;0.00;;;;;;;;;;4921841;29;20471;-61
2023/09/11 11:54:23;;;;;;;0.00;0.00;;;;;;;;;;4921621;29;20047;-59
2023/09/11 11:56:52;;;;;;;0.00;0.00;;;;;;;;;;4918112;29;20086;-61
2023/09/11 11:59:18;;;;;;;0.00;0.00;;;;;;;;;;4915934;29;20047;-60
2023/09/11 12:01:44;;;;;;;0.00;0.00;;;;;;;;;;4926244;29;20102;-59
2023/09/11 12:04:09;;;;;;;0.00;0.00;;;;;;;;;;4918221;29;20040;-60
2023/09/11 12:06:34;;;;;;;0.00;0.00;;;;;;;;;;4920794;29;20582;-59
2023/09/11 12:09:00;;;;;;;0.00;0.00;;;;;;;;;;4916086;29;20032;-61
2023/09/11 12:11:26;;;;;;;0.00;0.00;;;;;;;;;;4918061;29;20058;-62
2023/09/11 12:13:51;;;;;;;0.00;0.00;;;;;;;;;;4916418;29;20558;-60
2023/09/11 12:16:16;;;;;;;0.00;0.00;;;;;;;;;;4917476;29;20040;-60
2023/09/11 12:18:42;;;;;;;0.00;0.00;;;;;;;;;;4915480;29;20115;-62
2023/09/11 12:21:07;;;;;;;0.00;0.00;;;;;;;;;;4913422;29;20075;-62
2023/09/11 12:23:33;;;;;;;0.00;0.00;;;;;;;;;;4918114;29;20047;-60
2023/09/11 12:25:59;;;;;;;0.00;0.00;;;;;;;;;;4920042;29;20028;-60
2023/09/11 12:28:25;;;;;;;0.00;0.00;;;;;;;;;;4918547;29;20039;-60
2023/09/11 12:30:50;;;;;;;0.00;0.00;;;;;;;;;;4920360;29;20086;-61
2023/09/11 12:33:21;;;;;;;0.00;0.00;;;;;;;;;;4915572;29;20355;-60
2023/09/11 12:35:46;;;;;;;0.00;0.00;;;;;;;;;;4914056;29;20123;-60
2023/09/11 12:38:12;;;;;;;0.00;0.00;;;;;;;;;;4918433;29;20107;-61
2023/09/11 12:40:38;;;;;;;0.00;0.00;;;;;;;;;;4919701;29;20032;-62
2023/09/11 12:43:03;;;;;;;0.00;0.00;;;;;;;;;;4930737;29;20043;-60
2023/09/11 12:45:29;;;;;;;0.00;0.00;;;;;;;;;;4924526;29;20560;-58
2023/09/11 12:47:54;;;;;;;0.00;0.00;;;;;;;;;;4920244;29;20096;-58
2023/09/11 12:50:20;;;;;;;0.00;0.00;;;;;;;;;;4922276;29;20753;-63
2023/09/11 12:52:45;;;;;;;0.00;0.00;;;;;;;;;;4920120;29;20036;-61
2023/09/11 12:55:11;;;;;;;0.00;0.00;;;;;;;;;;4922967;29;20644;-61
2023/09/11 12:57:38;;;;;;;0.00;0.00;;;;;;;;;;4922599;29;20115;-60
2023/09/11 13:00:03;;;;;;;0.00;0.00;;;;;;;;;;4927073;29;20060;-59
2023/09/11 13:02:32;;;;;;;0.00;0.00;;;;;;;;;;4926746;29;20135;-61
2023/09/11 13:04:58;;;;;;;0.00;0.00;;;;;;;;;;4922158;29;20031;-59
2023/09/11 13:07:23;;;;;;;0.00;0.00;;;;;;;;;;4922030;29;20036;-61
2023/09/11 13:09:49;;;;;;;0.00;0.00;;;;;;;;;;4923190;29;20044;-59
2023/09/11 13:12:14;;;;;;;0.00;0.00;;;;;;;;;;4926002;29;20031;-60
2023/09/11 13:14:39;;;;;;;0.00;0.00;;;;;;;;;;4920993;29;20046;-59
2023/09/11 13:17:05;;;;;;;0.00;0.00;;;;;;;;;;4922065;29;20036;-60
2023/09/11 13:19:30;;;;;;;0.00;0.00;;;;;;;;;;4919509;29;20568;-60
2023/09/11 13:21:56;;;;;;;0.00;0.00;;;;;;;;;;4924463;29;20046;-60
2023/09/11 13:24:21;;;;;;;0.00;0.00;;;;;;;;;;4913703;29;20054;-61
2023/09/11 13:26:47;;;;;;;0.00;0.00;;;;;;;;;;4918236;29;20024;-63
2023/09/11 13:29:13;;;;;;;0.00;0.00;;;;;;;;;;4921688;29;20028;-60
2023/09/11 13:31:39;;;;;;;0.00;0.00;;;;;;;;;;4917124;29;20845;-61
2023/09/11 13:34:04;;;;;;;0.00;0.00;;;;;;;;;;4917839;29;20771;-61
2023/09/11 13:36:29;;;;;;;0.00;0.00;;;;;;;;;;4917877;29;20082;-60
2023/09/11 13:38:55;;;;;;;0.00;0.00;;;;;;;;;;4917743;29;20839;-61
2023/09/11 13:41:20;;;;;;;0.00;0.00;;;;;;;;;;4917424;29;20799;-61
2023/09/11 13:43:45;;;;;;;0.00;0.00;;;;;;;;;;4921828;29;20043;-60
2023/09/11 13:46:11;;;;;;;0.00;0.00;;;;;;;;;;4921433;29;20036;-61
2023/09/11 13:48:36;;;;;;;0.00;0.00;;;;;;;;;;4930201;29;20132;-59
2023/09/11 13:51:02;;;;;;;0.00;0.00;;;;;;;;;;4920342;29;20513;-60
2023/09/11 13:53:27;;;;;;;0.00;0.00;;;;;;;;;;4916367;29;20031;-60
2023/09/11 13:55:53;;;;;;;0.00;0.00;;;;;;;;;;4916704;29;20375;-59
2023/09/11 13:58:18;;;;;;;0.00;0.00;;;;;;;;;;4916112;29;20040;-61
2023/09/11 14:00:43;;;;;;;0.00;0.00;;;;;;;;;;4918294;29;20375;-60
2023/09/11 14:03:09;;;;;;;0.00;0.00;;;;;;;;;;4915389;29;20051;-60
2023/09/11 14:05:34;;;;;;;0.00;0.00;;;;;;;;;;4921567;29;20562;-61
2023/09/11 14:08:00;;;;;;;0.00;0.00;;;;;;;;;;4921141;29;20458;-62
2023/09/11 14:10:25;;;;;;;0.00;0.00;;;;;;;;;;4926964;29;20052;-62
2023/09/11 14:12:50;;;;;;;0.00;0.00;;;;;;;;;;4926662;29;20449;-62
2023/09/11 14:15:15;;;;;;;0.00;0.00;;;;;;;;;;4922077;29;20688;-61
2023/09/11 14:17:41;;;;;;;0.00;0.00;;;;;;;;;;4922180;29;20460;-60
2023/09/11 14:20:10;;;;;;;0.00;0.00;;;;;;;;;;4920316;29;20397;-61
2023/09/11 14:22:36;;;;;;;0.00;0.00;;;;;;;;;;4921389;29;20654;-62
2023/09/11 14:25:02;;;;;;;0.00;0.00;;;;;;;;;;4917572;29;20510;-60
2023/09/11 14:27:27;;;;;;;0.00;0.00;;;;;;;;;;4922904;29;20139;-62
2023/09/11 14:29:52;;;;;;;0.00;0.00;;;;;;;;;;4917979;29;20139;-61
2023/09/11 14:32:18;;;;;;;0.00;0.00;;;;;;;;;;4923222;29;20128;-60
2023/09/11 14:34:43;;;;;;;0.00;0.00;;;;;;;;;;4917542;29;20032;-61
2023/09/11 14:37:09;;;;;;;0.00;0.00;;;;;;;;;;4918078;29;20529;-61